sensor_id;sensor_type;location;lat;lon;timestamp;P1;durP1;ratioP1;P2;durP2;ratioP2
15307;SDS011;7755;52.208;6.964;2023-07-20T00:02:41;3.23;;;3.00;;
15307;SDS011;7755;52.208;6.964;2023-07-20T00:06:45;3.63;;;3.43;;
15307;SDS011;7755;52.208;6.964;2023-07-20T00:10:49;4.07;;;3.73;;
15307;SDS011;7755;52.208;6.964;2023-07-20T00:14:52;4.20;;;3.87;;
15307;SDS011;7755;52.208;6.964;2023-07-20T00:18:55;4.23;;;3.93;;
15307;SDS011;7755;52.208;6.964;2023-07-20T00:22:58;5.00;;;4.60;;
15307;SDS011;7755;52.208;6.964;2023-07-20T00:27:03;5.10;;;3.80;;
15307;SDS011;7755;52.208;6.964;2023-07-20T00:31:06;5.43;;;4.73;;
15307;SDS011;7755;52.208;6.964;2023-07-20T00:35:11;6.80;;;6.00;;
15307;SDS011;7755;52.208;6.964;2023-07-20T00:39:14;6.53;;;5.97;;
15307;SDS011;7755;52.208;6.964;2023-07-20T00:43:18;6.70;;;6.00;;
15307;SDS011;7755;52.208;6.964;2023-07-20T00:47:21;7.97;;;6.30;;
15307;SDS011;7755;52.208;6.964;2023-07-20T00:51:24;7.50;;;5.43;;
15307;SDS011;7755;52.208;6.964;2023-07-20T00:55:28;7.93;;;6.20;;
15307;SDS011;7755;52.208;6.964;2023-07-20T00:59:33;7.77;;;7.07;;
15307;SDS011;7755;52.208;6.964;2023-07-20T01:03:37;6.57;;;5.97;;
15307;SDS011;7755;52.208;6.964;2023-07-20T01:07:42;9.43;;;7.00;;
15307;SDS011;7755;52.208;6.964;2023-07-20T01:11:50;7.63;;;7.00;;
15307;SDS011;7755;52.208;6.964;2023-07-20T01:16:01;9.93;;;8.93;;
15307;SDS011;7755;52.208;6.964;2023-07-20T01:20:04;8.17;;;7.47;;
15307;SDS011;7755;52.208;6.964;2023-07-20T01:24:18;8.40;;;7.60;;
15307;SDS011;7755;52.208;6.964;2023-07-20T01:28:39;9.03;;;8.30;;
15307;SDS011;7755;52.208;6.964;2023-07-20T01:33:03;9.03;;;8.13;;
15307;SDS011;7755;52.208;6.964;2023-07-20T01:37:06;8.17;;;7.43;;
15307;SDS011;7755;52.208;6.964;2023-07-20T01:41:11;7.10;;;6.40;;
15307;SDS011;7755;52.208;6.964;2023-07-20T01:45:14;7.77;;;7.00;;
15307;SDS011;7755;52.208;6.964;2023-07-20T01:49:18;9.37;;;8.37;;
15307;SDS011;7755;52.208;6.964;2023-07-20T01:53:22;7.90;;;7.20;;
15307;SDS011;7755;52.208;6.964;2023-07-20T01:57:25;6.47;;;5.90;;
15307;SDS011;7755;52.208;6.964;2023-07-20T02:01:28;7.63;;;7.00;;
15307;SDS011;7755;52.208;6.964;2023-07-20T02:05:32;7.23;;;6.63;;
15307;SDS011;7755;52.208;6.964;2023-07-20T02:09:35;6.53;;;5.93;;
15307;SDS011;7755;52.208;6.964;2023-07-20T02:13:42;7.30;;;6.60;;
15307;SDS011;7755;52.208;6.964;2023-07-20T02:17:44;7.00;;;6.40;;
15307;SDS011;7755;52.208;6.964;2023-07-20T02:21:49;7.93;;;7.20;;
15307;SDS011;7755;52.208;6.964;2023-07-20T02:25:51;8.10;;;7.40;;
15307;SDS011;7755;52.208;6.964;2023-07-20T02:29:54;7.23;;;6.63;;
15307;SDS011;7755;52.208;6.964;2023-07-20T02:33:57;7.20;;;6.50;;
15307;SDS011;7755;52.208;6.964;2023-07-20T02:38:02;7.53;;;6.93;;
15307;SDS011;7755;52.208;6.964;2023-07-20T02:42:05;6.10;;;5.57;;
15307;SDS011;7755;52.208;6.964;2023-07-20T02:46:08;7.77;;;7.17;;
15307;SDS011;7755;52.208;6.964;2023-07-20T02:50:12;6.90;;;6.30;;
15307;SDS011;7755;52.208;6.964;2023-07-20T02:54:17;7.50;;;6.90;;
15307;SDS011;7755;52.208;6.964;2023-07-20T02:58:19;8.37;;;7.67;;
15307;SDS011;7755;52.208;6.964;2023-07-20T03:02:22;8.33;;;7.63;;
15307;SDS011;7755;52.208;6.964;2023-07-20T03:06:26;7.70;;;7.10;;
15307;SDS011;7755;52.208;6.964;2023-07-20T03:10:31;8.53;;;7.83;;
15307;SDS011;7755;52.208;6.964;2023-07-20T03:14:34;7.97;;;7.27;;
15307;SDS011;7755;52.208;6.964;2023-07-20T03:18:37;6.77;;;6.17;;
15307;SDS011;7755;52.208;6.964;2023-07-20T03:22:41;7.73;;;7.10;;
15307;SDS011;7755;52.208;6.964;2023-07-20T03:26:46;8.87;;;8.07;;
15307;SDS011;7755;52.208;6.964;2023-07-20T03:30:52;8.17;;;7.47;;
15307;SDS011;7755;52.208;6.964;2023-07-20T03:34:56;8.60;;;7.87;;
15307;SDS011;7755;52.208;6.964;2023-07-20T03:38:59;10.80;;;9.80;;
15307;SDS011;7755;52.208;6.964;2023-07-20T03:43:04;8.97;;;8.17;;
15307;SDS011;7755;52.208;6.964;2023-07-20T03:47:07;9.43;;;8.63;;
15307;SDS011;7755;52.208;6.964;2023-07-20T03:51:10;10.10;;;9.10;;
15307;SDS011;7755;52.208;6.964;2023-07-20T03:55:13;10.30;;;9.40;;
15307;SDS011;7755;52.208;6.964;2023-07-20T03:59:18;8.83;;;8.03;;
15307;SDS011;7755;52.208;6.964;2023-07-20T04:03:21;9.23;;;8.47;;
15307;SDS011;7755;52.208;6.964;2023-07-20T04:07:24;7.70;;;7.10;;
15307;SDS011;7755;52.208;6.964;2023-07-20T04:11:27;8.33;;;7.63;;
15307;SDS011;7755;52.208;6.964;2023-07-20T04:15:32;7.90;;;7.20;;
15307;SDS011;7755;52.208;6.964;2023-07-20T04:19:35;8.23;;;7.53;;
15307;SDS011;7755;52.208;6.964;2023-07-20T04:23:38;9.03;;;8.23;;
15307;SDS011;7755;52.208;6.964;2023-07-20T04:27:41;7.23;;;6.63;;
15307;SDS011;7755;52.208;6.964;2023-07-20T04:31:46;8.97;;;8.20;;
15307;SDS011;7755;52.208;6.964;2023-07-20T04:35:49;9.00;;;8.20;;
15307;SDS011;7755;52.208;6.964;2023-07-20T04:40:02;8.97;;;8.07;;
15307;SDS011;7755;52.208;6.964;2023-07-20T04:44:06;8.83;;;8.03;;
15307;SDS011;7755;52.208;6.964;2023-07-20T04:48:13;8.33;;;7.63;;
15307;SDS011;7755;52.208;6.964;2023-07-20T04:52:26;8.63;;;7.77;;
15307;SDS011;7755;52.208;6.964;2023-07-20T04:56:41;8.33;;;7.63;;
15307;SDS011;7755;52.208;6.964;2023-07-20T05:00:47;8.67;;;7.60;;
15307;SDS011;7755;52.208;6.964;2023-07-20T05:04:52;7.90;;;7.20;;
15307;SDS011;7755;52.208;6.964;2023-07-20T05:08:55;7.17;;;6.67;;
15307;SDS011;7755;52.208;6.964;2023-07-20T05:12:58;9.67;;;8.77;;
15307;SDS011;7755;52.208;6.964;2023-07-20T05:17:02;7.70;;;7.10;;
15307;SDS011;7755;52.208;6.964;2023-07-20T05:21:07;8.27;;;7.60;;
15307;SDS011;7755;52.208;6.964;2023-07-20T05:25:10;7.17;;;6.40;;
15307;SDS011;7755;52.208;6.964;2023-07-20T05:29:14;7.80;;;7.10;;
15307;SDS011;7755;52.208;6.964;2023-07-20T05:33:17;8.67;;;7.97;;
15307;SDS011;7755;52.208;6.964;2023-07-20T05:37:21;6.93;;;6.33;;
15307;SDS011;7755;52.208;6.964;2023-07-20T05:41:24;6.80;;;6.27;;
15307;SDS011;7755;52.208;6.964;2023-07-20T05:45:27;7.10;;;6.50;;
15307;SDS011;7755;52.208;6.964;2023-07-20T05:49:29;8.50;;;7.63;;
15307;SDS011;7755;52.208;6.964;2023-07-20T05:53:34;7.10;;;6.50;;
15307;SDS011;7755;52.208;6.964;2023-07-20T05:57:37;7.03;;;6.43;;
15307;SDS011;7755;52.208;6.964;2023-07-20T06:01:43;7.33;;;6.73;;
15307;SDS011;7755;52.208;6.964;2023-07-20T06:05:46;8.10;;;7.37;;
15307;SDS011;7755;52.208;6.964;2023-07-20T06:09:51;6.77;;;6.27;;
15307;SDS011;7755;52.208;6.964;2023-07-20T06:13:54;7.00;;;6.37;;
15307;SDS011;7755;52.208;6.964;2023-07-20T06:17:57;6.67;;;6.07;;
15307;SDS011;7755;52.208;6.964;2023-07-20T06:22:00;5.50;;;5.10;;
15307;SDS011;7755;52.208;6.964;2023-07-20T06:26:05;6.13;;;5.63;;
15307;SDS011;7755;52.208;6.964;2023-07-20T06:30:09;4.53;;;4.23;;
15307;SDS011;7755;52.208;6.964;2023-07-20T06:34:13;5.10;;;4.70;;
15307;SDS011;7755;52.208;6.964;2023-07-20T06:38:16;5.47;;;4.97;;
15307;SDS011;7755;52.208;6.964;2023-07-20T06:42:23;4.30;;;4.00;;
15307;SDS011;7755;52.208;6.964;2023-07-20T06:46:46;4.10;;;3.83;;
15307;SDS011;7755;52.208;6.964;2023-07-20T06:50:49;4.23;;;3.87;;
15307;SDS011;7755;52.208;6.964;2023-07-20T06:54:52;3.20;;;2.90;;
15307;SDS011;7755;52.208;6.964;2023-07-20T06:58:56;3.27;;;2.97;;
15307;SDS011;7755;52.208;6.964;2023-07-20T07:02:59;3.57;;;3.30;;
15307;SDS011;7755;52.208;6.964;2023-07-20T07:07:02;3.73;;;3.43;;
15307;SDS011;7755;52.208;6.964;2023-07-20T07:11:06;3.67;;;3.37;;
15307;SDS011;7755;52.208;6.964;2023-07-20T07:15:12;3.10;;;2.77;;
15307;SDS011;7755;52.208;6.964;2023-07-20T07:19:15;3.20;;;2.90;;
15307;SDS011;7755;52.208;6.964;2023-07-20T07:23:17;3.20;;;3.00;;
15307;SDS011;7755;52.208;6.964;2023-07-20T07:27:21;3.60;;;3.40;;
15307;SDS011;7755;52.208;6.964;2023-07-20T07:31:25;2.50;;;2.30;;
15307;SDS011;7755;52.208;6.964;2023-07-20T07:35:28;2.03;;;1.83;;
15307;SDS011;7755;52.208;6.964;2023-07-20T07:39:31;3.47;;;1.93;;
15307;SDS011;7755;52.208;6.964;2023-07-20T07:43:36;2.10;;;2.00;;
15307;SDS011;7755;52.208;6.964;2023-07-20T07:47:41;2.20;;;2.10;;
15307;SDS011;7755;52.208;6.964;2023-07-20T07:51:44;1.70;;;1.60;;
15307;SDS011;7755;52.208;6.964;2023-07-20T07:55:47;1.53;;;1.50;;
15307;SDS011;7755;52.208;6.964;2023-07-20T07:59:50;1.50;;;1.40;;
15307;SDS011;7755;52.208;6.964;2023-07-20T08:03:54;1.70;;;1.60;;
15307;SDS011;7755;52.208;6.964;2023-07-20T08:07:58;1.73;;;1.63;;
15307;SDS011;7755;52.208;6.964;2023-07-20T08:12:01;1.73;;;1.60;;
15307;SDS011;7755;52.208;6.964;2023-07-20T08:16:05;3.10;;;2.87;;
15307;SDS011;7755;52.208;6.964;2023-07-20T08:20:09;2.07;;;1.80;;
15307;SDS011;7755;52.208;6.964;2023-07-20T08:24:13;1.80;;;1.70;;
15307;SDS011;7755;52.208;6.964;2023-07-20T08:28:16;1.70;;;1.60;;
15307;SDS011;7755;52.208;6.964;2023-07-20T08:32:19;2.40;;;1.97;;
15307;SDS011;7755;52.208;6.964;2023-07-20T08:36:24;2.13;;;1.93;;
15307;SDS011;7755;52.208;6.964;2023-07-20T08:40:27;1.20;;;1.20;;
15307;SDS011;7755;52.208;6.964;2023-07-20T08:44:31;1.60;;;1.50;;
15307;SDS011;7755;52.208;6.964;2023-07-20T08:48:35;1.40;;;1.30;;
15307;SDS011;7755;52.208;6.964;2023-07-20T08:52:39;1.67;;;1.57;;
15307;SDS011;7755;52.208;6.964;2023-07-20T08:56:42;1.80;;;1.60;;
15307;SDS011;7755;52.208;6.964;2023-07-20T09:00:48;1.43;;;1.43;;
15307;SDS011;7755;52.208;6.964;2023-07-20T09:04:53;1.70;;;1.60;;
15307;SDS011;7755;52.208;6.964;2023-07-20T09:08:57;2.23;;;1.30;;
15307;SDS011;7755;52.208;6.964;2023-07-20T09:13:00;1.10;;;1.10;;
15307;SDS011;7755;52.208;6.964;2023-07-20T09:17:03;1.67;;;1.27;;
15307;SDS011;7755;52.208;6.964;2023-07-20T09:21:06;1.20;;;1.20;;
15307;SDS011;7755;52.208;6.964;2023-07-20T09:25:12;1.13;;;1.13;;
15307;SDS011;7755;52.208;6.964;2023-07-20T09:29:17;1.00;;;1.00;;
15307;SDS011;7755;52.208;6.964;2023-07-20T09:33:21;1.00;;;1.00;;
15307;SDS011;7755;52.208;6.964;2023-07-20T09:37:27;1.30;;;1.30;;
15307;SDS011;7755;52.208;6.964;2023-07-20T09:41:34;1.27;;;1.20;;
15307;SDS011;7755;52.208;6.964;2023-07-20T09:45:47;2.10;;;1.50;;
15307;SDS011;7755;52.208;6.964;2023-07-20T09:49:57;1.73;;;1.60;;
15307;SDS011;7755;52.208;6.964;2023-07-20T09:54:05;1.87;;;1.77;;
15307;SDS011;7755;52.208;6.964;2023-07-20T09:58:10;1.60;;;1.50;;
15307;SDS011;7755;52.208;6.964;2023-07-20T10:02:15;1.70;;;1.60;;
15307;SDS011;7755;52.208;6.964;2023-07-20T10:06:24;1.47;;;1.37;;
15307;SDS011;7755;52.208;6.964;2023-07-20T10:10:29;1.20;;;1.20;;
15307;SDS011;7755;52.208;6.964;2023-07-20T10:14:37;1.40;;;1.30;;
15307;SDS011;7755;52.208;6.964;2023-07-20T10:18:49;1.40;;;1.20;;
15307;SDS011;7755;52.208;6.964;2023-07-20T10:22:59;1.70;;;1.60;;
15307;SDS011;7755;52.208;6.964;2023-07-20T10:27:04;1.10;;;1.10;;
15307;SDS011;7755;52.208;6.964;2023-07-20T10:31:09;5.47;;;2.03;;
15307;SDS011;7755;52.208;6.964;2023-07-20T10:35:15;1.60;;;1.50;;
15307;SDS011;7755;52.208;6.964;2023-07-20T10:39:22;1.70;;;1.60;;
15307;SDS011;7755;52.208;6.964;2023-07-20T10:43:27;1.20;;;1.17;;
15307;SDS011;7755;52.208;6.964;2023-07-20T10:47:32;1.13;;;1.10;;
15307;SDS011;7755;52.208;6.964;2023-07-20T10:51:48;1.13;;;1.13;;
15307;SDS011;7755;52.208;6.964;2023-07-20T10:56:05;0.80;;;0.80;;
15307;SDS011;7755;52.208;6.964;2023-07-20T11:00:09;0.80;;;0.80;;
15307;SDS011;7755;52.208;6.964;2023-07-20T11:04:16;0.90;;;0.90;;
15307;SDS011;7755;52.208;6.964;2023-07-20T11:12:54;1.20;;;0.90;;
15307;SDS011;7755;52.208;6.964;2023-07-20T11:17:21;0.97;;;0.90;;
15307;SDS011;7755;52.208;6.964;2023-07-20T11:21:37;1.10;;;1.00;;
15307;SDS011;7755;52.208;6.964;2023-07-20T11:26:01;1.00;;;0.90;;
15307;SDS011;7755;52.208;6.964;2023-07-20T11:30:14;1.00;;;1.00;;
15307;SDS011;7755;52.208;6.964;2023-07-20T11:34:18;1.10;;;1.00;;
15307;SDS011;7755;52.208;6.964;2023-07-20T11:38:24;1.50;;;1.00;;
15307;SDS011;7755;52.208;6.964;2023-07-20T11:42:27;0.90;;;0.90;;
15307;SDS011;7755;52.208;6.964;2023-07-20T11:46:34;0.60;;;0.60;;
15307;SDS011;7755;52.208;6.964;2023-07-20T11:50:38;0.70;;;0.70;;
15307;SDS011;7755;52.208;6.964;2023-07-20T11:54:43;0.90;;;0.90;;
15307;SDS011;7755;52.208;6.964;2023-07-20T11:58:50;0.80;;;0.80;;
15307;SDS011;7755;52.208;6.964;2023-07-20T12:02:56;0.70;;;0.70;;
15307;SDS011;7755;52.208;6.964;2023-07-20T12:06:59;0.90;;;0.88;;
15307;SDS011;7755;52.208;6.964;2023-07-20T12:11:05;1.00;;;1.00;;
15307;SDS011;7755;52.208;6.964;2023-07-20T12:15:14;1.17;;;1.13;;
15307;SDS011;7755;52.208;6.964;2023-07-20T12:19:24;1.23;;;1.13;;
15307;SDS011;7755;52.208;6.964;2023-07-20T12:23:36;1.00;;;1.00;;
15307;SDS011;7755;52.208;6.964;2023-07-20T12:27:41;1.00;;;1.00;;
15307;SDS011;7755;52.208;6.964;2023-07-20T12:31:49;1.27;;;1.17;;
15307;SDS011;7755;52.208;6.964;2023-07-20T12:35:52;1.10;;;1.10;;
15307;SDS011;7755;52.208;6.964;2023-07-20T12:39:57;1.20;;;1.10;;
15307;SDS011;7755;52.208;6.964;2023-07-20T12:44:01;0.90;;;0.90;;
15307;SDS011;7755;52.208;6.964;2023-07-20T12:48:04;1.10;;;1.10;;
15307;SDS011;7755;52.208;6.964;2023-07-20T12:52:07;1.30;;;1.03;;
15307;SDS011;7755;52.208;6.964;2023-07-20T12:56:10;1.67;;;1.27;;
15307;SDS011;7755;52.208;6.964;2023-07-20T13:00:18;1.23;;;1.13;;
15307;SDS011;7755;52.208;6.964;2023-07-20T13:04:22;1.13;;;1.13;;
15307;SDS011;7755;52.208;6.964;2023-07-20T13:08:25;1.30;;;1.30;;
15307;SDS011;7755;52.208;6.964;2023-07-20T13:12:28;1.17;;;1.17;;
15307;SDS011;7755;52.208;6.964;2023-07-20T13:16:33;1.10;;;1.10;;
15307;SDS011;7755;52.208;6.964;2023-07-20T13:20:37;1.20;;;1.20;;
15307;SDS011;7755;52.208;6.964;2023-07-20T13:24:40;1.63;;;1.30;;
15307;SDS011;7755;52.208;6.964;2023-07-20T13:28:43;1.53;;;1.43;;
15307;SDS011;7755;52.208;6.964;2023-07-20T13:32:47;1.40;;;1.30;;
15307;SDS011;7755;52.208;6.964;2023-07-20T13:36:51;1.67;;;1.10;;
15307;SDS011;7755;52.208;6.964;2023-07-20T13:40:54;2.20;;;1.57;;
15307;SDS011;7755;52.208;6.964;2023-07-20T13:44:56;1.50;;;1.37;;
15307;SDS011;7755;52.208;6.964;2023-07-20T13:49:01;1.10;;;1.10;;
15307;SDS011;7755;52.208;6.964;2023-07-20T13:53:12;1.10;;;1.10;;
15307;SDS011;7755;52.208;6.964;2023-07-20T13:57:18;2.40;;;2.20;;
15307;SDS011;7755;52.208;6.964;2023-07-20T14:01:22;1.33;;;1.30;;
15307;SDS011;7755;52.208;6.964;2023-07-20T14:05:30;1.40;;;1.30;;
15307;SDS011;7755;52.208;6.964;2023-07-20T14:09:37;1.27;;;1.00;;
15307;SDS011;7755;52.208;6.964;2023-07-20T14:14:00;1.53;;;1.23;;
15307;SDS011;7755;52.208;6.964;2023-07-20T14:18:03;1.40;;;1.30;;
15307;SDS011;7755;52.208;6.964;2023-07-20T14:22:07;1.67;;;1.23;;
15307;SDS011;7755;52.208;6.964;2023-07-20T14:26:13;1.63;;;1.30;;
15307;SDS011;7755;52.208;6.964;2023-07-20T14:30:16;1.93;;;1.37;;
15307;SDS011;7755;52.208;6.964;2023-07-20T14:34:20;1.23;;;1.23;;
15307;SDS011;7755;52.208;6.964;2023-07-20T14:38:25;1.60;;;1.50;;
15307;SDS011;7755;52.208;6.964;2023-07-20T14:42:28;1.10;;;1.10;;
15307;SDS011;7755;52.208;6.964;2023-07-20T14:46:33;1.27;;;1.27;;
15307;SDS011;7755;52.208;6.964;2023-07-20T14:50:36;1.47;;;1.40;;
15307;SDS011;7755;52.208;6.964;2023-07-20T14:54:40;1.77;;;1.67;;
15307;SDS011;7755;52.208;6.964;2023-07-20T14:58:43;1.73;;;1.60;;
15307;SDS011;7755;52.208;6.964;2023-07-20T15:02:46;1.20;;;1.20;;
15307;SDS011;7755;52.208;6.964;2023-07-20T15:06:49;1.13;;;1.13;;
15307;SDS011;7755;52.208;6.964;2023-07-20T15:10:53;1.47;;;1.47;;
15307;SDS011;7755;52.208;6.964;2023-07-20T15:15:06;1.20;;;1.20;;
15307;SDS011;7755;52.208;6.964;2023-07-20T15:19:10;1.63;;;1.53;;
15307;SDS011;7755;52.208;6.964;2023-07-20T15:23:15;1.37;;;1.33;;
15307;SDS011;7755;52.208;6.964;2023-07-20T15:27:19;1.70;;;1.60;;
15307;SDS011;7755;52.208;6.964;2023-07-20T15:31:22;1.40;;;1.30;;
15307;SDS011;7755;52.208;6.964;2023-07-20T15:35:45;1.70;;;1.60;;
15307;SDS011;7755;52.208;6.964;2023-07-20T15:39:48;1.60;;;1.60;;
15307;SDS011;7755;52.208;6.964;2023-07-20T15:43:57;1.90;;;1.80;;
15307;SDS011;7755;52.208;6.964;2023-07-20T15:48:00;1.93;;;1.47;;
15307;SDS011;7755;52.208;6.964;2023-07-20T15:52:03;1.67;;;1.57;;
15307;SDS011;7755;52.208;6.964;2023-07-20T15:56:08;1.80;;;1.70;;
15307;SDS011;7755;52.208;6.964;2023-07-20T16:00:13;1.50;;;1.40;;
15307;SDS011;7755;52.208;6.964;2023-07-20T16:04:18;2.10;;;2.00;;
15307;SDS011;7755;52.208;6.964;2023-07-20T16:08:21;1.57;;;1.47;;
15307;SDS011;7755;52.208;6.964;2023-07-20T16:12:24;1.60;;;1.50;;
15307;SDS011;7755;52.208;6.964;2023-07-20T16:16:30;1.80;;;1.70;;
15307;SDS011;7755;52.208;6.964;2023-07-20T16:20:34;1.80;;;1.70;;
15307;SDS011;7755;52.208;6.964;2023-07-20T16:24:38;2.20;;;1.90;;
15307;SDS011;7755;52.208;6.964;2023-07-20T16:28:41;1.47;;;1.37;;
15307;SDS011;7755;52.208;6.964;2023-07-20T16:32:45;1.53;;;1.50;;
15307;SDS011;7755;52.208;6.964;2023-07-20T16:36:52;2.17;;;1.70;;
15307;SDS011;7755;52.208;6.964;2023-07-20T16:40:58;1.80;;;1.70;;
15307;SDS011;7755;52.208;6.964;2023-07-20T16:45:01;1.60;;;1.50;;
15307;SDS011;7755;52.208;6.964;2023-07-20T16:49:05;1.57;;;1.57;;
15307;SDS011;7755;52.208;6.964;2023-07-20T16:53:10;1.67;;;1.50;;
15307;SDS011;7755;52.208;6.964;2023-07-20T16:57:13;2.43;;;2.30;;
15307;SDS011;7755;52.208;6.964;2023-07-20T17:01:16;1.70;;;1.60;;
15307;SDS011;7755;52.208;6.964;2023-07-20T17:05:20;1.63;;;1.53;;
15307;SDS011;7755;52.208;6.964;2023-07-20T17:09:23;1.67;;;1.57;;
15307;SDS011;7755;52.208;6.964;2023-07-20T17:13:27;1.40;;;1.40;;
15307;SDS011;7755;52.208;6.964;2023-07-20T17:17:30;1.57;;;1.47;;
15307;SDS011;7755;52.208;6.964;2023-07-20T17:21:35;1.40;;;1.40;;
15307;SDS011;7755;52.208;6.964;2023-07-20T17:25:41;1.30;;;1.30;;
15307;SDS011;7755;52.208;6.964;2023-07-20T17:30:05;1.40;;;1.40;;
15307;SDS011;7755;52.208;6.964;2023-07-20T17:34:09;1.60;;;1.50;;
15307;SDS011;7755;52.208;6.964;2023-07-20T17:38:14;2.10;;;1.77;;
15307;SDS011;7755;52.208;6.964;2023-07-20T17:42:19;1.40;;;1.40;;
15307;SDS011;7755;52.208;6.964;2023-07-20T17:46:25;1.70;;;1.60;;
15307;SDS011;7755;52.208;6.964;2023-07-20T17:50:31;1.70;;;1.60;;
15307;SDS011;7755;52.208;6.964;2023-07-20T17:54:35;2.10;;;1.90;;
15307;SDS011;7755;52.208;6.964;2023-07-20T17:58:38;1.90;;;1.77;;
15307;SDS011;7755;52.208;6.964;2023-07-20T18:02:41;1.67;;;1.57;;
15307;SDS011;7755;52.208;6.964;2023-07-20T18:06:44;1.80;;;1.70;;
15307;SDS011;7755;52.208;6.964;2023-07-20T18:10:49;1.50;;;1.50;;
15307;SDS011;7755;52.208;6.964;2023-07-20T18:14:51;2.30;;;1.90;;
15307;SDS011;7755;52.208;6.964;2023-07-20T18:18:55;2.13;;;1.93;;
15307;SDS011;7755;52.208;6.964;2023-07-20T18:22:57;1.50;;;1.40;;
15307;SDS011;7755;52.208;6.964;2023-07-20T18:27:02;2.07;;;1.80;;
15307;SDS011;7755;52.208;6.964;2023-07-20T18:31:05;2.13;;;2.03;;
15307;SDS011;7755;52.208;6.964;2023-07-20T18:35:10;1.37;;;1.37;;
15307;SDS011;7755;52.208;6.964;2023-07-20T18:39:13;1.97;;;1.87;;
15307;SDS011;7755;52.208;6.964;2023-07-20T18:43:17;2.60;;;2.40;;
15307;SDS011;7755;52.208;6.964;2023-07-20T18:47:20;2.33;;;2.20;;
15307;SDS011;7755;52.208;6.964;2023-07-20T18:51:23;2.73;;;2.50;;
15307;SDS011;7755;52.208;6.964;2023-07-20T18:55:26;1.90;;;1.80;;
15307;SDS011;7755;52.208;6.964;2023-07-20T18:59:32;2.10;;;2.00;;
15307;SDS011;7755;52.208;6.964;2023-07-20T19:03:36;2.23;;;2.03;;
15307;SDS011;7755;52.208;6.964;2023-07-20T19:07:39;2.13;;;2.03;;
15307;SDS011;7755;52.208;6.964;2023-07-20T19:11:42;2.57;;;2.37;;
15307;SDS011;7755;52.208;6.964;2023-07-20T19:15:49;2.23;;;2.13;;
15307;SDS011;7755;52.208;6.964;2023-07-20T19:19:57;1.93;;;1.83;;
15307;SDS011;7755;52.208;6.964;2023-07-20T19:24:00;1.77;;;1.67;;
15307;SDS011;7755;52.208;6.964;2023-07-20T19:28:03;2.20;;;2.10;;
15307;SDS011;7755;52.208;6.964;2023-07-20T19:32:08;2.00;;;1.90;;
15307;SDS011;7755;52.208;6.964;2023-07-20T19:36:12;2.33;;;2.10;;
15307;SDS011;7755;52.208;6.964;2023-07-20T19:40:15;1.60;;;1.53;;
15307;SDS011;7755;52.208;6.964;2023-07-20T19:44:18;2.13;;;1.93;;
15307;SDS011;7755;52.208;6.964;2023-07-20T19:48:22;2.23;;;2.13;;
15307;SDS011;7755;52.208;6.964;2023-07-20T19:52:25;2.17;;;2.07;;
15307;SDS011;7755;52.208;6.964;2023-07-20T19:56:27;2.33;;;2.20;;
15307;SDS011;7755;52.208;6.964;2023-07-20T20:00:31;2.87;;;2.50;;
15307;SDS011;7755;52.208;6.964;2023-07-20T20:04:38;3.07;;;2.80;;
15307;SDS011;7755;52.208;6.964;2023-07-20T20:08:44;2.57;;;2.47;;
15307;SDS011;7755;52.208;6.964;2023-07-20T20:12:47;2.47;;;2.37;;
15307;SDS011;7755;52.208;6.964;2023-07-20T20:16:50;3.60;;;2.40;;
15307;SDS011;7755;52.208;6.964;2023-07-20T20:20:55;2.77;;;2.57;;
15307;SDS011;7755;52.208;6.964;2023-07-20T20:24:59;2.83;;;2.63;;
15307;SDS011;7755;52.208;6.964;2023-07-20T20:29:04;3.60;;;2.60;;
15307;SDS011;7755;52.208;6.964;2023-07-20T20:33:07;2.47;;;2.37;;
15307;SDS011;7755;52.208;6.964;2023-07-20T20:37:11;3.17;;;2.93;;
15307;SDS011;7755;52.208;6.964;2023-07-20T20:41:14;3.17;;;2.97;;
15307;SDS011;7755;52.208;6.964;2023-07-20T20:45:18;4.23;;;3.50;;
15307;SDS011;7755;52.208;6.964;2023-07-20T20:49:21;5.57;;;4.30;;
15307;SDS011;7755;52.208;6.964;2023-07-20T20:53:25;7.27;;;5.83;;
15307;SDS011;7755;52.208;6.964;2023-07-20T20:57:28;4.83;;;3.90;;
15307;SDS011;7755;52.208;6.964;2023-07-20T21:01:30;3.33;;;3.07;;
15307;SDS011;7755;52.208;6.964;2023-07-20T21:05:34;2.70;;;2.50;;
15307;SDS011;7755;52.208;6.964;2023-07-20T21:09:38;3.23;;;2.70;;
15307;SDS011;7755;52.208;6.964;2023-07-20T21:13:41;3.30;;;3.00;;
15307;SDS011;7755;52.208;6.964;2023-07-20T21:17:44;2.77;;;2.57;;
15307;SDS011;7755;52.208;6.964;2023-07-20T21:21:47;2.63;;;2.43;;
15307;SDS011;7755;52.208;6.964;2023-07-20T21:25:51;2.20;;;2.07;;
15307;SDS011;7755;52.208;6.964;2023-07-20T21:29:54;2.27;;;2.07;;
15307;SDS011;7755;52.208;6.964;2023-07-20T21:33:57;4.07;;;3.77;;
15307;SDS011;7755;52.208;6.964;2023-07-20T21:38:00;2.87;;;2.67;;
15307;SDS011;7755;52.208;6.964;2023-07-20T21:42:04;3.23;;;3.00;;
15307;SDS011;7755;52.208;6.964;2023-07-20T21:46:08;2.70;;;2.50;;
15307;SDS011;7755;52.208;6.964;2023-07-20T21:50:11;2.83;;;2.63;;
15307;SDS011;7755;52.208;6.964;2023-07-20T21:54:14;3.13;;;2.93;;
15307;SDS011;7755;52.208;6.964;2023-07-20T21:58:18;2.90;;;2.70;;
15307;SDS011;7755;52.208;6.964;2023-07-20T22:02:21;3.50;;;3.20;;
15307;SDS011;7755;52.208;6.964;2023-07-20T22:06:24;3.47;;;2.80;;
15307;SDS011;7755;52.208;6.964;2023-07-20T22:10:27;2.63;;;2.43;;
15307;SDS011;7755;52.208;6.964;2023-07-20T22:14:31;2.87;;;2.50;;
15307;SDS011;7755;52.208;6.964;2023-07-20T22:18:34;3.47;;;2.77;;
15307;SDS011;7755;52.208;6.964;2023-07-20T22:22:37;3.10;;;2.90;;
15307;SDS011;7755;52.208;6.964;2023-07-20T22:26:41;2.90;;;2.70;;
15307;SDS011;7755;52.208;6.964;2023-07-20T22:30:45;3.43;;;3.13;;
15307;SDS011;7755;52.208;6.964;2023-07-20T22:34:49;3.73;;;3.43;;
15307;SDS011;7755;52.208;6.964;2023-07-20T22:38:52;3.50;;;3.20;;
15307;SDS011;7755;52.208;6.964;2023-07-20T22:42:55;3.40;;;3.20;;
15307;SDS011;7755;52.208;6.964;2023-07-20T22:46:59;3.63;;;3.33;;
15307;SDS011;7755;52.208;6.964;2023-07-20T22:51:05;3.40;;;3.20;;
15307;SDS011;7755;52.208;6.964;2023-07-20T22:55:08;3.10;;;2.90;;
15307;SDS011;7755;52.208;6.964;2023-07-20T22:59:12;3.40;;;3.10;;
15307;SDS011;7755;52.208;6.964;2023-07-20T23:03:16;3.23;;;2.90;;
15307;SDS011;7755;52.208;6.964;2023-07-20T23:07:19;3.80;;;3.37;;
15307;SDS011;7755;52.208;6.964;2023-07-20T23:11:23;3.50;;;3.20;;
15307;SDS011;7755;52.208;6.964;2023-07-20T23:15:26;3.67;;;3.37;;
15307;SDS011;7755;52.208;6.964;2023-07-20T23:19:31;3.30;;;3.00;;
15307;SDS011;7755;52.208;6.964;2023-07-20T23:23:34;3.53;;;3.23;;
15307;SDS011;7755;52.208;6.964;2023-07-20T23:27:38;3.30;;;3.10;;
15307;SDS011;7755;52.208;6.964;2023-07-20T23:31:41;4.00;;;3.70;;
15307;SDS011;7755;52.208;6.964;2023-07-20T23:35:46;3.70;;;3.40;;
15307;SDS011;7755;52.208;6.964;2023-07-20T23:39:49;3.73;;;3.43;;
15307;SDS011;7755;52.208;6.964;2023-07-20T23:43:53;3.50;;;3.30;;
15307;SDS011;7755;52.208;6.964;2023-07-20T23:47:58;3.70;;;3.40;;
15307;SDS011;7755;52.208;6.964;2023-07-20T23:52:03;4.20;;;3.80;;
15307;SDS011;7755;52.208;6.964;2023-07-20T23:56:06;3.70;;;3.50;;
